Time;durP1;ratioP1;P1;durP2;ratioP2;P2;SDS_P1;SDS_P2;PMS_P1;PMS_P2;Temp;Humidity;BMP_temperature;BMP_pressure;BME280_temperature;BME280_humidity;BME280_pressure;Samples;Min_cycle;Max_cycle;Signal;HPM_P1;HPM_P2
2024/02/02 00:01:37;;;;;;;7.70;6.40;;;25.90;1.00;;;;;;2613056;54;20152;-60
2024/02/02 00:04:03;;;;;;;7.20;6.60;;;25.90;1.00;;;;;;2613147;54;20169;-59
2024/02/02 00:06:29;;;;;;;7.33;6.73;;;25.80;1.00;;;;;;2613066;54;20160;-60
2024/02/02 00:08:55;;;;;;;6.90;6.40;;;25.80;1.00;;;;;;2614856;54;20412;-60
2024/02/02 00:11:20;;;;;;;6.67;6.27;;;25.70;1.00;;;;;;2614499;54;20404;-60
2024/02/02 00:13:46;;;;;;;6.87;6.27;;;25.70;1.00;;;;;;2614953;54;20160;-60
2024/02/02 00:16:12;;;;;;;7.30;6.70;;;25.60;1.00;;;;;;2613713;54;20165;-59
2024/02/02 00:18:38;;;;;;;6.60;6.10;;;25.60;1.00;;;;;;2614669;54;20165;-58
2024/02/02 00:21:04;;;;;;;6.53;5.90;;;25.50;1.00;;;;;;2614726;54;20154;-59
2024/02/02 00:23:30;;;;;;;6.60;6.10;;;25.50;1.00;;;;;;2614392;54;20443;-60
2024/02/02 00:25:55;;;;;;;7.00;6.00;;;25.40;1.00;;;;;;2614485;54;20227;-59
2024/02/02 00:28:21;;;;;;;6.57;5.97;;;25.40;1.00;;;;;;2614290;54;20164;-60
2024/02/02 00:30:47;;;;;;;6.73;6.23;;;25.40;1.00;;;;;;2614025;47;20170;-60
2024/02/02 00:33:13;;;;;;;7.33;6.63;;;25.30;1.00;;;;;;2614744;54;20171;-59
2024/02/02 00:35:38;;;;;;;6.73;6.23;;;25.30;1.00;;;;;;2613930;54;20404;-60
2024/02/02 00:38:04;;;;;;;7.73;6.63;;;25.20;1.00;;;;;;2614790;54;20679;-60
2024/02/02 00:40:29;;;;;;;6.63;5.87;;;25.20;1.00;;;;;;2614247;54;20144;-58
2024/02/02 00:42:55;;;;;;;7.87;6.73;;;25.10;1.00;;;;;;2613778;54;20156;-60
2024/02/02 00:45:21;;;;;;;7.70;7.00;;;25.10;1.00;;;;;;2614217;47;20696;-60
2024/02/02 00:47:47;;;;;;;6.47;5.93;;;25.10;1.00;;;;;;2614744;54;20221;-60
2024/02/02 00:50:12;;;;;;;6.87;6.27;;;25.10;1.00;;;;;;2613503;39;20663;-58
2024/02/02 00:52:39;;;;;;;6.60;6.00;;;25.00;1.00;;;;;;2614813;39;20674;-58
2024/02/02 00:55:05;;;;;;;6.30;5.70;;;25.00;1.00;;;;;;2613874;54;20155;-58
2024/02/02 00:57:30;;;;;;;7.53;6.83;;;24.90;1.00;;;;;;2610686;47;20478;-58
2024/02/02 00:59:56;;;;;;;7.17;6.47;;;24.90;1.00;;;;;;2610266;47;20262;-58
2024/02/02 01:02:22;;;;;;;8.93;7.27;;;24.90;1.00;;;;;;2614463;54;21071;-64
2024/02/02 01:04:47;;;;;;;7.57;6.97;;;24.90;1.00;;;;;;2613792;54;20165;-64
2024/02/02 01:07:16;;;;;;;7.47;6.87;;;24.80;1.00;;;;;;2612758;54;20159;-64
2024/02/02 01:09:43;;;;;;;7.50;7.00;;;24.80;1.00;;;;;;2614714;54;20143;-64
2024/02/02 01:12:09;;;;;;;8.03;7.20;;;24.70;1.00;;;;;;2614091;47;20414;-61
2024/02/02 01:14:37;;;;;;;9.87;7.17;;;24.70;1.00;;;;;;2613972;54;20419;-60
2024/02/02 01:17:03;;;;;;;7.03;6.37;;;24.70;1.00;;;;;;2613262;54;20419;-61
2024/02/02 01:19:28;;;;;;;8.00;7.20;;;24.70;1.00;;;;;;2614513;54;20404;-60
2024/02/02 01:21:54;;;;;;;7.40;6.70;;;24.60;1.00;;;;;;2614610;54;20422;-60
2024/02/02 01:24:20;;;;;;;6.93;6.43;;;24.60;1.00;;;;;;2614442;54;20678;-61
2024/02/02 01:26:45;;;;;;;6.77;6.23;;;24.60;1.00;;;;;;2614724;39;20585;-61
2024/02/02 01:29:11;;;;;;;7.93;7.33;;;24.60;1.00;;;;;;2613356;54;20173;-60
2024/02/02 01:31:37;;;;;;;7.70;7.20;;;24.50;1.00;;;;;;2614366;47;20232;-61
2024/02/02 01:34:02;;;;;;;6.73;6.30;;;24.50;1.00;;;;;;2614184;47;20170;-61
2024/02/02 01:36:28;;;;;;;8.00;7.30;;;24.50;1.00;;;;;;2613603;54;20162;-61
2024/02/02 01:38:54;;;;;;;7.80;7.10;;;24.50;1.00;;;;;;2614088;54;20168;-60
2024/02/02 01:41:20;;;;;;;7.63;6.93;;;24.40;1.00;;;;;;2614286;54;20174;-60
2024/02/02 01:43:46;;;;;;;8.13;7.50;;;24.40;1.00;;;;;;2615131;39;20823;-60
2024/02/02 01:46:15;;;;;;;7.50;6.83;;;24.40;1.00;;;;;;2614120;54;20403;-60
2024/02/02 01:48:41;;;;;;;8.40;7.60;;;24.30;1.00;;;;;;2614262;39;20571;-60
2024/02/02 01:51:07;;;;;;;7.73;7.00;;;24.30;1.00;;;;;;2613790;47;20431;-61
2024/02/02 01:53:33;;;;;;;7.53;6.93;;;24.30;1.00;;;;;;2613712;54;20590;-60
2024/02/02 01:55:59;;;;;;;6.80;6.30;;;24.30;1.00;;;;;;2614438;54;20431;-60
2024/02/02 01:58:26;;;;;;;7.30;6.80;;;24.20;1.00;;;;;;2613918;47;20434;-61
2024/02/02 02:00:52;;;;;;;8.80;8.10;;;24.20;1.00;;;;;;2613757;31;20662;-61
2024/02/02 02:03:17;;;;;;;7.10;6.60;;;24.20;1.00;;;;;;2613955;47;20420;-60
2024/02/02 02:05:43;;;;;;;6.83;6.33;;;24.10;1.00;;;;;;2614139;54;20801;-60
2024/02/02 02:08:10;;;;;;;7.90;7.20;;;24.10;1.00;;;;;;2615517;54;20162;-60
2024/02/02 02:10:36;;;;;;;7.20;6.63;;;24.10;1.00;;;;;;2614938;39;20650;-60
2024/02/02 02:13:02;;;;;;;7.70;7.10;;;24.10;1.00;;;;;;2614898;54;20422;-62
2024/02/02 02:15:28;;;;;;;6.60;6.10;;;24.10;1.00;;;;;;2614856;54;20535;-62
2024/02/02 02:17:54;;;;;;;7.73;7.13;;;24.10;1.00;;;;;;2615645;39;20826;-62
2024/02/02 02:20:22;;;;;;;8.27;7.60;;;24.00;1.00;;;;;;2614930;54;20405;-62
2024/02/02 02:22:48;;;;;;;7.77;7.13;;;24.00;1.00;;;;;;2615309;47;20162;-59
2024/02/02 02:25:14;;;;;;;7.63;7.03;;;24.00;1.00;;;;;;2614012;54;20414;-60
2024/02/02 02:27:40;;;;;;;8.27;6.40;;;24.00;1.00;;;;;;2615293;54;21043;-60
2024/02/02 02:30:06;;;;;;;7.50;6.90;;;23.90;1.00;;;;;;2614479;47;20260;-60
2024/02/02 02:32:31;;;;;;;7.27;6.67;;;23.90;1.00;;;;;;2614529;54;20814;-59
2024/02/02 02:34:57;;;;;;;7.83;7.13;;;23.90;1.00;;;;;;2614550;54;20461;-59
2024/02/02 02:37:23;;;;;;;7.40;6.87;;;23.90;1.00;;;;;;2614244;47;20168;-60
2024/02/02 02:39:49;;;;;;;7.33;6.63;;;23.80;1.00;;;;;;2613809;54;20264;-60
2024/02/02 02:42:15;;;;;;;7.13;6.50;;;23.80;1.00;;;;;;2614391;54;20672;-60
2024/02/02 02:44:41;;;;;;;7.90;7.20;;;23.80;1.00;;;;;;2614653;51;20440;-60
2024/02/02 02:47:06;;;;;;;7.13;6.63;;;23.80;1.00;;;;;;2614293;54;20182;-60
2024/02/02 02:49:32;;;;;;;7.50;7.00;;;23.80;1.00;;;;;;2613947;54;20169;-59
2024/02/02 02:51:58;;;;;;;7.07;6.50;;;23.80;1.00;;;;;;2614886;54;20414;-60
2024/02/02 02:54:24;;;;;;;7.43;6.73;;;23.80;1.00;;;;;;2614668;54;20177;-60
2024/02/02 02:56:49;;;;;;;8.73;6.27;;;23.70;1.00;;;;;;2614758;54;20410;-59
2024/02/02 02:59:16;;;;;;;7.40;6.83;;;23.70;1.00;;;;;;2613977;54;20165;-59
2024/02/02 03:01:43;;;;;;;6.73;6.20;;;23.70;1.00;;;;;;2614359;54;20173;-69
2024/02/02 03:04:09;;;;;;;7.07;6.47;;;23.70;1.00;;;;;;2615242;47;20437;-70
2024/02/02 03:06:35;;;;;;;6.83;6.43;;;23.70;1.00;;;;;;2614393;54;21013;-70
2024/02/02 03:09:00;;;;;;;6.90;6.30;;;23.60;1.00;;;;;;2614886;54;20414;-70
2024/02/02 03:11:26;;;;;;;7.50;6.80;;;23.60;1.00;;;;;;2615906;54;20161;-70
2024/02/02 03:13:52;;;;;;;7.23;6.67;;;23.60;1.00;;;;;;2615471;54;20152;-70
2024/02/02 03:16:17;;;;;;;7.83;7.03;;;23.60;1.00;;;;;;2615507;39;20558;-69
2024/02/02 03:18:43;;;;;;;7.03;6.53;;;23.60;1.00;;;;;;2613516;54;20191;-69
2024/02/02 03:21:09;;;;;;;6.43;5.93;;;23.60;1.00;;;;;;2615344;39;20680;-63
2024/02/02 03:23:34;;;;;;;7.70;7.00;;;23.60;1.00;;;;;;2615234;39;20549;-63
2024/02/02 03:26:00;;;;;;;6.93;6.23;;;23.60;1.00;;;;;;2615085;54;20149;-63
2024/02/02 03:28:26;;;;;;;6.33;5.83;;;23.50;1.00;;;;;;2614077;47;20211;-64
2024/02/02 03:30:52;;;;;;;8.00;7.40;;;23.50;1.00;;;;;;2614834;54;20154;-64
2024/02/02 03:33:18;;;;;;;6.70;6.13;;;23.50;1.00;;;;;;2614324;54;20965;-64
2024/02/02 03:35:43;;;;;;;7.40;7.00;;;23.50;1.00;;;;;;2614389;47;20451;-63
2024/02/02 03:38:09;;;;;;;7.37;6.87;;;23.50;1.00;;;;;;2614572;47;20157;-63
2024/02/02 03:40:35;;;;;;;6.77;6.20;;;23.40;1.00;;;;;;2614811;54;20188;-63
2024/02/02 03:43:00;;;;;;;6.97;6.47;;;23.40;1.00;;;;;;2613938;54;20172;-63
2024/02/02 03:45:26;;;;;;;7.10;6.60;;;23.40;1.00;;;;;;2614176;54;20679;-64
2024/02/02 03:47:52;;;;;;;7.37;6.67;;;23.40;1.00;;;;;;2614761;46;20195;-64
2024/02/02 03:50:17;;;;;;;7.33;6.60;;;23.40;1.00;;;;;;2614733;47;20177;-62
2024/02/02 03:52:43;;;;;;;7.20;6.70;;;23.40;1.00;;;;;;2614296;47;20790;-63
2024/02/02 03:55:09;;;;;;;6.77;6.00;;;23.40;1.00;;;;;;2615076;54;20161;-64
2024/02/02 03:57:35;;;;;;;6.53;6.03;;;23.40;1.00;;;;;;2614454;51;20184;-62
2024/02/02 04:00:00;;;;;;;6.87;6.20;;;23.30;1.00;;;;;;2613687;39;20875;-63
2024/02/02 04:02:26;;;;;;;6.80;6.30;;;23.30;1.00;;;;;;2613687;54;20177;-63
2024/02/02 04:04:52;;;;;;;6.00;5.50;;;23.30;1.00;;;;;;2613504;54;20149;-63
2024/02/02 04:07:17;;;;;;;6.90;6.40;;;23.30;1.00;;;;;;2614486;54;20661;-63
2024/02/02 04:09:43;;;;;;;7.30;6.80;;;23.30;1.00;;;;;;2615160;47;20153;-64
2024/02/02 04:12:09;;;;;;;7.00;6.40;;;23.30;1.00;;;;;;2612357;54;20167;-59
2024/02/02 04:14:35;;;;;;;7.27;6.53;;;23.30;1.00;;;;;;2610650;54;20245;-59
2024/02/02 04:17:00;;;;;;;7.27;6.73;;;23.30;1.00;;;;;;2611309;47;20609;-59
2024/02/02 04:19:26;;;;;;;8.83;7.87;;;23.30;1.00;;;;;;2611892;54;20271;-58
2024/02/02 04:21:52;;;;;;;7.00;6.50;;;23.30;1.00;;;;;;2611387;54;20172;-60
2024/02/02 04:24:17;;;;;;;7.50;6.83;;;23.20;1.00;;;;;;2610368;54;20224;-59
2024/02/02 04:26:43;;;;;;;7.37;6.87;;;23.20;1.00;;;;;;2611344;54;20207;-59
2024/02/02 04:29:09;;;;;;;8.40;7.70;;;23.20;1.00;;;;;;2611362;54;20196;-60
2024/02/02 04:31:34;;;;;;;7.77;7.17;;;23.20;1.00;;;;;;2610989;54;20993;-63
2024/02/02 04:34:00;;;;;;;6.53;6.03;;;23.20;1.00;;;;;;2611129;47;20170;-63
2024/02/02 04:36:26;;;;;;;8.10;7.50;;;23.20;1.00;;;;;;2610931;54;20162;-62
2024/02/02 04:38:51;;;;;;;7.20;6.70;;;23.10;1.00;;;;;;2613548;54;20189;-63
2024/02/02 04:41:17;;;;;;;7.20;6.53;;;23.10;1.00;;;;;;2611328;54;20338;-61
2024/02/02 04:43:42;;;;;;;7.27;6.80;;;23.10;1.00;;;;;;2610265;54;20147;-59
2024/02/02 04:46:08;;;;;;;6.87;6.43;;;23.10;1.00;;;;;;2612033;39;20564;-60
2024/02/02 04:48:34;;;;;;;8.63;7.50;;;23.10;1.00;;;;;;2612652;39;20689;-60
2024/02/02 04:50:59;;;;;;;8.13;7.47;;;23.10;1.00;;;;;;2611070;54;20226;-59
2024/02/02 04:53:25;;;;;;;6.80;6.20;;;23.10;1.00;;;;;;2614176;54;20177;-58
2024/02/02 04:55:51;;;;;;;7.30;6.80;;;23.10;1.00;;;;;;2612489;54;20170;-59
2024/02/02 04:58:16;;;;;;;6.63;6.13;;;23.10;1.00;;;;;;2613058;54;20409;-59
2024/02/02 05:00:43;;;;;;;6.63;6.20;;;23.00;1.00;;;;;;2614070;39;24087;-57
2024/02/02 05:03:09;;;;;;;5.90;5.50;;;23.00;1.00;;;;;;2612494;54;20154;-64
2024/02/02 05:05:35;;;;;;;7.37;6.70;;;23.00;1.00;;;;;;2613927;39;20889;-59
2024/02/02 05:08:00;;;;;;;6.90;6.50;;;23.10;1.00;;;;;;2614302;54;20191;-61
2024/02/02 05:10:26;;;;;;;8.00;6.77;;;23.20;1.00;;;;;;2613363;54;20272;-59
2024/02/02 05:12:51;;;;;;;10.30;6.00;;;23.10;1.00;;;;;;2611022;39;20646;-60
2024/02/02 05:15:17;;;;;;;7.50;6.27;;;23.10;1.00;;;;;;2610849;54;20242;-60
2024/02/02 05:17:44;;;;;;;7.90;7.30;;;23.10;1.00;;;;;;2610728;54;20147;-59
2024/02/02 05:20:10;;;;;;;9.47;8.77;;;23.00;1.00;;;;;;2610695;54;20255;-60
2024/02/02 05:22:36;;;;;;;8.07;7.47;;;23.00;1.00;;;;;;2610909;54;20411;-64
2024/02/02 05:25:03;;;;;;;6.67;6.17;;;23.00;1.00;;;;;;2610802;54;20176;-65
2024/02/02 05:27:28;;;;;;;7.43;6.83;;;23.00;1.00;;;;;;2612061;54;20160;-64
2024/02/02 05:29:54;;;;;;;6.93;6.33;;;23.00;1.00;;;;;;2613247;54;20437;-65
2024/02/02 05:32:20;;;;;;;6.53;6.07;;;23.00;1.00;;;;;;2610755;54;20264;-65
2024/02/02 05:34:45;;;;;;;8.40;7.50;;;23.00;1.00;;;;;;2611242;54;20166;-64
2024/02/02 05:37:11;;;;;;;7.73;7.03;;;23.00;1.00;;;;;;2610020;54;20154;-65
2024/02/02 05:39:37;;;;;;;7.07;6.20;;;23.00;1.00;;;;;;2610836;47;20169;-64
2024/02/02 05:42:03;;;;;;;6.03;5.53;;;23.00;1.00;;;;;;2611689;54;20164;-63
2024/02/02 05:44:28;;;;;;;6.17;5.63;;;23.00;1.00;;;;;;2614791;54;20152;-62
2024/02/02 05:46:54;;;;;;;8.27;5.77;;;23.00;1.00;;;;;;2615129;54;20537;-63
2024/02/02 05:49:20;;;;;;;6.97;6.37;;;23.00;1.00;;;;;;2615773;39;20584;-63
2024/02/02 05:51:46;;;;;;;6.73;6.23;;;23.00;1.00;;;;;;2612121;54;20272;-60
2024/02/02 05:54:12;;;;;;;7.17;6.67;;;23.00;1.00;;;;;;2611622;54;20173;-60
2024/02/02 05:56:37;;;;;;;6.70;6.27;;;23.00;1.00;;;;;;2611844;54;20932;-61
2024/02/02 05:59:03;;;;;;;7.17;6.57;;;22.90;1.00;;;;;;2611179;54;20170;-61
2024/02/02 06:01:29;;;;;;;6.53;6.03;;;22.90;1.00;;;;;;2610290;54;20240;-61
2024/02/02 06:03:55;;;;;;;6.70;6.20;;;22.90;1.00;;;;;;2614290;54;20213;-60
2024/02/02 06:06:20;;;;;;;6.23;5.73;;;23.00;1.00;;;;;;2610083;54;20890;-61
2024/02/02 06:08:46;;;;;;;6.10;5.60;;;23.00;1.00;;;;;;2611651;54;20184;-60
2024/02/02 06:11:11;;;;;;;7.17;6.47;;;22.90;1.00;;;;;;2613948;54;20569;-61
2024/02/02 06:13:37;;;;;;;6.77;6.20;;;23.00;1.00;;;;;;2611489;54;20176;-61
2024/02/02 06:16:03;;;;;;;7.27;6.57;;;22.90;1.00;;;;;;2612229;47;20152;-60
2024/02/02 06:18:29;;;;;;;5.77;5.33;;;22.90;1.00;;;;;;2610574;54;20172;-60
2024/02/02 06:20:54;;;;;;;8.30;5.93;;;22.90;1.00;;;;;;2612147;54;20464;-60
2024/02/02 06:23:20;;;;;;;6.40;6.00;;;22.90;1.00;;;;;;2610115;54;20165;-60
2024/02/02 06:25:45;;;;;;;8.30;7.90;;;22.90;1.00;;;;;;2610894;54;20159;-60
2024/02/02 06:28:13;;;;;;;8.63;8.10;;;23.00;1.00;;;;;;2611488;54;20175;-61
2024/02/02 06:30:39;;;;;;;8.17;7.60;;;23.00;1.00;;;;;;2611386;47;20193;-59
2024/02/02 06:33:05;;;;;;;7.30;6.70;;;23.00;1.00;;;;;;2612417;39;20796;-67
2024/02/02 06:35:30;;;;;;;6.73;6.30;;;23.00;1.00;;;;;;2611851;39;20632;-66
2024/02/02 06:37:57;;;;;;;8.20;7.70;;;23.00;1.00;;;;;;2610054;54;20796;-67
2024/02/02 06:40:23;;;;;;;8.20;7.70;;;23.10;1.00;;;;;;2609730;47;20182;-67
2024/02/02 06:42:49;;;;;;;7.20;6.50;;;23.10;1.00;;;;;;2608360;54;20400;-68
2024/02/02 06:45:15;;;;;;;8.20;7.60;;;23.10;1.00;;;;;;2609161;47;20166;-68
2024/02/02 06:47:41;;;;;;;8.90;7.63;;;23.10;1.00;;;;;;2614149;54;20197;-68
2024/02/02 06:50:08;;;;;;;8.70;7.90;;;23.10;1.00;;;;;;2612630;54;20427;-66
2024/02/02 06:52:34;;;;;;;11.70;8.27;;;23.20;1.00;;;;;;2612537;39;20962;-61
2024/02/02 06:55:00;;;;;;;8.50;7.70;;;23.20;1.00;;;;;;2612218;54;20408;-62
2024/02/02 06:57:29;;;;;;;6.80;3.90;;;23.30;1.00;;;;;;2613142;54;20434;-60
2024/02/02 06:59:57;;;;;;;5.57;3.97;;;23.20;1.00;;;;;;2612485;54;20199;-60
2024/02/02 07:02:30;;;;;;;6.03;3.60;;;23.20;1.00;;;;;;2613186;47;20481;-67
2024/02/02 07:04:56;;;;;;;4.60;3.60;;;23.20;1.00;;;;;;2611235;54;20423;-67
2024/02/02 07:07:22;;;;;;;5.60;4.03;;;23.20;1.00;;;;;;2614295;54;20396;-68
2024/02/02 07:09:55;;;;;;;9.73;4.40;;;23.20;1.00;;;;;;2613384;54;20442;-67
2024/02/02 07:12:42;;;;;;;6.27;3.87;;;23.20;1.00;;;;;;2610839;54;20179;-66
2024/02/02 07:15:16;;;;;;;6.03;3.30;;;23.10;1.00;;;;;;2610674;47;20422;-66
2024/02/02 07:17:44;;;;;;;7.23;4.37;;;23.20;1.00;;;;;;2611092;54;20413;-66
2024/02/02 07:20:32;;;;;;;7.23;4.90;;;23.20;1.00;;;;;;2610612;54;20960;-66
2024/02/02 07:23:01;;;;;;;5.90;4.70;;;23.20;1.00;;;;;;2614210;54;20478;-66
2024/02/02 07:25:31;;;;;;;8.27;3.70;;;23.20;1.00;;;;;;2613357;54;20430;-65
2024/02/02 07:28:05;;;;;;;6.50;3.93;;;23.20;1.00;;;;;;2613504;54;20516;-65
2024/02/02 07:30:53;;;;;;;10.80;4.90;;;23.20;1.00;;;;;;2614044;47;20433;-66
2024/02/02 07:33:25;;;;;;;9.37;3.33;;;23.20;1.00;;;;;;2614138;47;20462;-65
2024/02/02 07:35:53;;;;;;;5.57;4.30;;;23.20;1.00;;;;;;2613929;54;20476;-66
2024/02/02 07:38:24;;;;;;;7.10;3.90;;;23.10;1.00;;;;;;2612641;54;20421;-66
2024/02/02 07:41:11;;;;;;;5.97;4.00;;;23.10;1.00;;;;;;2611492;54;20413;-65
2024/02/02 07:43:36;;;;;;;8.20;3.37;;;23.10;1.00;;;;;;2610335;54;20460;-60
2024/02/02 07:46:04;;;;;;;6.83;4.17;;;23.10;1.00;;;;;;2610181;54;20506;-60
2024/02/02 07:48:30;;;;;;;8.20;4.03;;;23.10;1.00;;;;;;2610096;47;20227;-59
2024/02/02 07:50:56;;;;;;;10.30;4.57;;;23.10;1.00;;;;;;2610824;54;20421;-59
2024/02/02 07:53:22;;;;;;;6.73;3.93;;;23.10;1.00;;;;;;2612326;54;20434;-60
2024/02/02 07:55:48;;;;;;;5.70;4.27;;;23.10;1.00;;;;;;2612136;54;20439;-60
2024/02/02 07:58:16;;;;;;;7.33;4.17;;;23.10;1.00;;;;;;2612753;54;20480;-60
2024/02/02 08:00:41;;;;;;;10.60;3.50;;;23.10;1.00;;;;;;2610697;54;20178;-60
2024/02/02 08:03:07;;;;;;;6.10;3.63;;;23.10;1.00;;;;;;2611185;54;20423;-66
2024/02/02 08:05:36;;;;;;;3.60;3.30;;;23.10;1.00;;;;;;2611349;47;20159;-65
2024/02/02 08:08:03;;;;;;;4.70;3.60;;;23.10;1.00;;;;;;2610281;54;20172;-65
2024/02/02 08:10:29;;;;;;;23.90;4.87;;;23.00;1.00;;;;;;2611006;54;20401;-65
2024/02/02 08:12:55;;;;;;;51.67;8.63;;;23.00;1.00;;;;;;2612425;54;20425;-61
2024/02/02 08:15:21;;;;;;;28.33;7.20;;;23.00;1.00;;;;;;2612323;39;20768;-61
2024/02/02 08:17:47;;;;;;;24.70;6.03;;;23.10;1.00;;;;;;2609063;54;20481;-61
2024/02/02 08:20:14;;;;;;;21.77;5.40;;;23.10;1.00;;;;;;2612229;54;20667;-61
2024/02/02 08:22:43;;;;;;;20.03;6.10;;;23.10;1.00;;;;;;2614489;47;20183;-62
2024/02/02 08:25:10;;;;;;;13.30;5.30;;;23.20;1.00;;;;;;2611331;54;20431;-62
2024/02/02 08:27:36;;;;;;;13.50;4.67;;;23.20;1.00;;;;;;2614052;39;20954;-62
2024/02/02 08:30:02;;;;;;;17.70;5.53;;;23.20;1.00;;;;;;2614768;54;20430;-62
2024/02/02 08:32:27;;;;;;;11.03;4.50;;;23.20;1.00;;;;;;2613655;54;21032;-61
2024/02/02 08:34:53;;;;;;;18.50;4.63;;;23.30;1.00;;;;;;2613963;46;20667;-61
2024/02/02 08:37:19;;;;;;;12.30;9.37;;;23.30;1.00;;;;;;2613440;54;20147;-60
2024/02/02 08:39:45;;;;;;;12.77;8.37;;;23.20;1.00;;;;;;2613224;54;20185;-62
2024/02/02 08:42:21;;;;;;;10.80;8.60;;;23.30;1.00;;;;;;2612279;47;20438;-61
2024/02/02 08:44:47;;;;;;;12.93;7.97;;;23.40;1.00;;;;;;2613302;39;20576;-61
2024/02/02 08:47:13;;;;;;;9.27;7.80;;;23.50;1.00;;;;;;2613149;47;20583;-61
2024/02/02 08:49:53;;;;;;;11.07;8.53;;;23.60;1.00;;;;;;2613101;54;20393;-61
2024/02/02 08:52:32;;;;;;;15.17;8.33;;;23.70;1.00;;;;;;2613288;54;20177;-59
2024/02/02 08:54:59;;;;;;;12.07;8.23;;;23.70;1.00;;;;;;2613702;31;21045;-59
2024/02/02 08:57:29;;;;;;;8.80;6.00;;;23.80;1.00;;;;;;2614172;47;20442;-59
2024/02/02 08:59:55;;;;;;;11.00;5.10;;;23.70;1.00;;;;;;2609682;51;20478;-59
2024/02/02 09:02:40;;;;;;;9.60;5.33;;;23.70;1.00;;;;;;2611336;54;20411;-59
2024/02/02 09:05:23;;;;;;;10.00;5.03;;;23.60;1.00;;;;;;2612604;54;20422;-59
2024/02/02 09:08:12;;;;;;;8.60;4.73;;;23.50;1.00;;;;;;2613320;54;20414;-59
2024/02/02 09:10:40;;;;;;;8.70;4.60;;;23.40;1.00;;;;;;2612840;54;20421;-59
2024/02/02 09:13:11;;;;;;;5.30;4.07;;;23.40;1.00;;;;;;2612705;54;20417;-63
2024/02/02 09:15:37;;;;;;;6.10;4.33;;;23.50;1.00;;;;;;2613369;47;20435;-63
2024/02/02 09:18:03;;;;;;;8.50;4.57;;;23.50;1.00;;;;;;2613973;54;21006;-63
2024/02/02 09:20:49;;;;;;;10.33;4.70;;;23.50;1.00;;;;;;2612652;54;20154;-64
2024/02/02 09:23:15;;;;;;;8.23;4.40;;;23.50;1.00;;;;;;2613448;54;20406;-59
2024/02/02 09:25:43;;;;;;;5.87;4.40;;;23.50;1.00;;;;;;2613986;54;20396;-59
2024/02/02 09:28:24;;;;;;;4.57;4.17;;;23.50;1.00;;;;;;2613697;54;20419;-59
2024/02/02 09:31:04;;;;;;;8.40;4.93;;;23.60;1.00;;;;;;2613334;54;21401;-59
2024/02/02 09:33:41;;;;;;;8.00;4.60;;;23.60;1.00;;;;;;2613981;47;20415;-59
2024/02/02 09:36:07;;;;;;;4.90;4.43;;;23.60;1.00;;;;;;2613440;54;20379;-60
2024/02/02 09:38:34;;;;;;;6.07;3.97;;;23.70;1.00;;;;;;2613375;51;20417;-60
2024/02/02 09:41:03;;;;;;;11.73;5.00;;;23.80;1.00;;;;;;2613160;47;20607;-59
2024/02/02 09:43:46;;;;;;;6.83;4.70;;;23.90;1.00;;;;;;2614023;54;20509;-58
2024/02/02 09:46:31;;;;;;;9.80;4.63;;;23.90;1.00;;;;;;2613852;54;20401;-58
2024/02/02 09:49:05;;;;;;;6.20;3.27;;;24.00;1.00;;;;;;2612074;54;20435;-59
2024/02/02 09:51:37;;;;;;;5.53;3.90;;;24.10;1.00;;;;;;2612518;54;20962;-59
2024/02/02 09:54:16;;;;;;;7.13;5.03;;;24.20;1.00;;;;;;2614029;31;21029;-59
2024/02/02 09:57:27;;;;;;;7.30;5.50;;;24.30;1.00;;;;;;2614244;39;20825;-59
2024/02/02 10:00:24;;;;;;;4.63;4.27;;;24.30;1.00;;;;;;2613788;39;21115;-60
2024/02/02 10:02:59;;;;;;;5.00;4.17;;;24.30;1.00;;;;;;2612929;54;20532;-60
2024/02/02 10:05:48;;;;;;;5.03;3.63;;;24.30;1.00;;;;;;2613478;54;20487;-59
2024/02/02 10:08:41;;;;;;;6.20;3.30;;;24.40;1.00;;;;;;2612625;47;20534;-59
2024/02/02 10:11:27;;;;;;;4.67;4.27;;;24.30;1.00;;;;;;2612981;54;20442;-63
2024/02/02 10:13:56;;;;;;;4.20;3.73;;;24.20;1.00;;;;;;2613999;46;20446;-65
2024/02/02 10:16:21;;;;;;;8.77;4.30;;;24.10;1.00;;;;;;2613818;54;20445;-64
2024/02/02 10:18:55;;;;;;;4.53;3.80;;;24.10;1.00;;;;;;2613409;54;21003;-64
2024/02/02 10:21:47;;;;;;;5.50;4.00;;;24.10;1.00;;;;;;2614268;54;20174;-64
2024/02/02 10:24:13;;;;;;;4.63;4.03;;;24.20;1.00;;;;;;2613558;47;20445;-64
2024/02/02 10:27:00;;;;;;;7.73;4.20;;;24.50;1.00;;;;;;2614638;54;20423;-65
2024/02/02 10:29:29;;;;;;;5.23;4.50;;;24.80;1.00;;;;;;2613898;54;20701;-65
2024/02/02 10:32:17;;;;;;;4.03;3.73;;;25.00;1.00;;;;;;2614532;54;20425;-59
2024/02/02 10:34:48;;;;;;;3.90;3.60;;;25.20;1.00;;;;;;2614228;47;20436;-59
2024/02/02 10:37:29;;;;;;;4.57;4.13;;;25.60;1.00;;;;;;2613525;54;20979;-60
2024/02/02 10:40:08;;;;;;;5.60;4.47;;;26.00;1.00;;;;;;2614509;54;20491;-60
2024/02/02 10:43:04;;;;;;;4.90;3.93;;;26.50;1.00;;;;;;2614485;39;20725;-59
2024/02/02 10:45:37;;;;;;;5.03;3.57;;;27.30;1.00;;;;;;2614393;47;20409;-59
2024/02/02 10:48:24;;;;;;;4.93;3.80;;;27.90;1.00;;;;;;2613555;54;20429;-60
2024/02/02 10:51:04;;;;;;;5.13;3.93;;;28.30;1.00;;;;;;2614362;39;20897;-59
2024/02/02 10:54:10;;;;;;;6.90;4.40;;;28.30;1.00;;;;;;2612483;54;20415;-59
2024/02/02 10:56:55;;;;;;;5.37;4.33;;;27.50;1.00;;;;;;2612953;54;21401;-60
2024/02/02 11:00:23;;;;;;;6.17;3.53;;;27.40;1.00;;;;;;2613747;47;20444;-59
2024/02/02 11:03:08;;;;;;;9.13;3.80;;;27.20;1.00;;;;;;2610712;47;21235;-59
2024/02/02 11:05:44;;;;;;;5.70;3.63;;;26.70;1.00;;;;;;2611829;51;20424;-59
2024/02/02 11:08:22;;;;;;;5.50;3.30;;;26.40;1.00;;;;;;2612544;39;20822;-59
2024/02/02 11:11:01;;;;;;;5.83;3.87;;;26.00;1.00;;;;;;2613656;39;20817;-59
2024/02/02 11:13:30;;;;;;;7.57;4.50;;;25.60;1.00;;;;;;2612994;54;20416;-59
2024/02/02 11:16:10;;;;;;;5.77;3.57;;;25.10;1.00;;;;;;2613156;54;20392;-59
2024/02/02 11:19:02;;;;;;;4.13;3.23;;;24.80;1.00;;;;;;2612970;54;20446;-60
2024/02/02 11:21:50;;;;;;;3.97;3.20;;;24.70;1.00;;;;;;2612858;39;21306;-67
2024/02/02 11:24:25;;;;;;;4.63;3.93;;;24.40;1.00;;;;;;2612970;54;20441;-67
2024/02/02 11:27:02;;;;;;;7.47;4.07;;;24.20;1.00;;;;;;2613327;54;20417;-67
2024/02/02 11:29:54;;;;;;;4.23;3.70;;;24.10;1.00;;;;;;2612981;47;20460;-67
2024/02/02 11:32:44;;;;;;;4.10;3.80;;;24.00;1.00;;;;;;2613361;47;20442;-67
2024/02/02 11:35:35;;;;;;;4.57;3.50;;;24.00;1.00;;;;;;2614451;51;20394;-67
2024/02/02 11:38:22;;;;;;;3.80;3.40;;;24.00;1.00;;;;;;2612682;54;20461;-67
2024/02/02 11:40:49;;;;;;;6.30;4.80;;;24.00;1.00;;;;;;2614592;54;20399;-60
2024/02/02 11:43:16;;;;;;;4.20;3.80;;;23.90;1.00;;;;;;2614478;54;20406;-65
2024/02/02 11:45:43;;;;;;;5.37;3.50;;;23.90;1.00;;;;;;2614583;54;20410;-65
2024/02/02 11:48:18;;;;;;;6.03;3.80;;;23.80;1.00;;;;;;2613774;54;20459;-65
2024/02/02 11:50:47;;;;;;;4.63;4.10;;;23.80;1.00;;;;;;2614377;54;20997;-65
2024/02/02 11:53:32;;;;;;;6.27;4.17;;;23.80;1.00;;;;;;2612782;54;20410;-60
2024/02/02 11:56:04;;;;;;;3.80;3.50;;;23.80;1.00;;;;;;2614361;54;20457;-59
2024/02/02 11:58:32;;;;;;;4.43;4.07;;;23.70;1.00;;;;;;2614184;39;20805;-59
2024/02/02 12:01:39;;;;;;;4.50;3.63;;;23.70;1.00;;;;;;2613601;54;20433;-59
2024/02/02 12:04:04;;;;;;;3.87;3.40;;;23.60;1.00;;;;;;2612949;39;21250;-60
2024/02/02 12:06:42;;;;;;;4.60;3.90;;;23.60;1.00;;;;;;2613541;47;20429;-60
2024/02/02 12:09:22;;;;;;;4.13;3.70;;;23.70;1.00;;;;;;2614195;54;20152;-59
2024/02/02 12:11:53;;;;;;;6.10;3.50;;;23.70;1.00;;;;;;2614235;51;20516;-60
2024/02/02 12:14:28;;;;;;;3.50;3.20;;;23.70;1.00;;;;;;2614032;54;20439;-60
2024/02/02 12:16:54;;;;;;;3.90;3.50;;;23.80;1.00;;;;;;2614183;54;20424;-60
2024/02/02 12:19:20;;;;;;;5.53;4.37;;;23.90;1.00;;;;;;2612647;54;20943;-60
2024/02/02 12:21:47;;;;;;;4.43;3.77;;;23.90;1.00;;;;;;2614549;54;20150;-60
2024/02/02 12:24:14;;;;;;;5.17;4.60;;;24.00;1.00;;;;;;2613245;54;20437;-60
2024/02/02 12:26:41;;;;;;;3.67;3.43;;;24.00;1.00;;;;;;2612530;54;20417;-60
2024/02/02 12:29:08;;;;;;;3.90;3.47;;;24.00;1.00;;;;;;2613133;54;20471;-60
2024/02/02 12:31:34;;;;;;;5.47;3.80;;;24.00;1.00;;;;;;2614176;54;20470;-62
2024/02/02 12:34:00;;;;;;;4.90;3.80;;;24.10;1.00;;;;;;2614450;54;20411;-62
2024/02/02 12:36:26;;;;;;;3.80;3.40;;;24.10;1.00;;;;;;2613348;54;20153;-61
2024/02/02 12:38:52;;;;;;;4.20;3.67;;;24.10;1.00;;;;;;2613185;53;20433;-61
2024/02/02 12:41:18;;;;;;;3.83;3.43;;;24.10;1.00;;;;;;2613656;51;20462;-61
2024/02/02 12:43:47;;;;;;;3.33;3.03;;;24.10;1.00;;;;;;2613540;54;20400;-61
2024/02/02 12:46:13;;;;;;;4.63;3.63;;;24.10;1.00;;;;;;2612613;54;20455;-62
2024/02/02 12:48:40;;;;;;;5.60;3.53;;;24.10;1.00;;;;;;2610357;54;20446;-63
2024/02/02 12:51:06;;;;;;;3.40;3.10;;;24.20;1.00;;;;;;2609909;54;20426;-65
2024/02/02 12:53:32;;;;;;;6.10;4.40;;;24.20;1.00;;;;;;2610865;39;20818;-67
2024/02/02 12:55:59;;;;;;;3.97;3.57;;;24.10;1.00;;;;;;2613106;47;20518;-67
2024/02/02 12:58:24;;;;;;;6.70;4.53;;;24.00;1.00;;;;;;2610402;39;20758;-66
2024/02/02 13:00:50;;;;;;;7.50;6.80;;;23.60;1.00;;;;;;2610163;54;20483;-59
2024/02/02 13:03:17;;;;;;;12.27;11.10;;;23.50;1.00;;;;;;2610067;54;20278;-67
2024/02/02 13:05:44;;;;;;;13.23;12.03;;;23.40;1.00;;;;;;2611055;54;20176;-66
2024/02/02 13:08:10;;;;;;;15.00;13.57;;;23.50;1.00;;;;;;2613408;54;21073;-67